THY6CN LTFM-EDDL
Flight info
| Callsign | THY6CN |
|---|---|
| Flight time | N/A |
| Altitude | 36000 |
| Route | TUDBU Q26 ETUBA DCT NAVOD DCT INVED DCT OGVUN DCT BEGLA DCT UBUXI DCT DITIS DCT RAPET DCT MASEK DCT AMETU T852 TINSA T854 DOMUX |
| Aircraft | A321/M-SDE3FGHIRWY/LB1 |
Departure
| Time | 2026-05-06 08:28 |
|---|---|
| Airport | İstanbul Airport (LTFM) |
Arrival
| Time | N/A |
|---|---|
| Airport | Düsseldorf Airport (EDDL) |
| Time | Latitude | Longitude | Altitude | Speed | Heading |
|---|---|---|---|---|---|
| 2026-05-06 07:53 | 41.26359 | 28.74512 | 334 ft | 0 kts | 179° |
| 2026-05-06 08:19 | 41.26370 | 28.74512 | 330 ft | 4 kts | 184° |
| 2026-05-06 08:19 | 41.26396 | 28.74519 | 331 ft | 4 kts | 207° |
| 2026-05-06 08:19 | 41.26416 | 28.74539 | 330 ft | 4 kts | 240° |
| 2026-05-06 08:19 | 41.26422 | 28.74569 | 330 ft | 3 kts | 285° |
| 2026-05-06 08:20 | 41.26421 | 28.74573 | 330 ft | 0 kts | 287° |
| 2026-05-06 08:22 | 41.26422 | 28.74563 | 330 ft | 3 kts | 274° |
| 2026-05-06 08:22 | 41.26421 | 28.74517 | 331 ft | 7 kts | 278° |
| 2026-05-06 08:22 | 41.26468 | 28.74475 | 333 ft | 11 kts | 353° |
| 2026-05-06 08:22 | 41.26557 | 28.74473 | 334 ft | 15 kts | 359° |
| 2026-05-06 08:23 | 41.26672 | 28.74470 | 331 ft | 18 kts | 359° |
| 2026-05-06 08:23 | 41.26803 | 28.74467 | 331 ft | 18 kts | 359° |
| 2026-05-06 08:23 | 41.26934 | 28.74464 | 333 ft | 17 kts | 359° |
| 2026-05-06 08:23 | 41.27043 | 28.74444 | 332 ft | 15 kts | 319° |
| 2026-05-06 08:24 | 41.27057 | 28.74298 | 331 ft | 18 kts | 268° |
| 2026-05-06 08:24 | 41.27055 | 28.74115 | 334 ft | 22 kts | 269° |
| 2026-05-06 08:24 | 41.27052 | 28.73902 | 334 ft | 24 kts | 269° |
| 2026-05-06 08:24 | 41.27049 | 28.73670 | 334 ft | 27 kts | 269° |
| 2026-05-06 08:25 | 41.27046 | 28.73437 | 333 ft | 25 kts | 269° |
| 2026-05-06 08:25 | 41.27043 | 28.73206 | 334 ft | 26 kts | 269° |
| 2026-05-06 08:25 | 41.27037 | 28.73029 | 334 ft | 15 kts | 255° |
| 2026-05-06 08:25 | 41.26944 | 28.72987 | 333 ft | 16 kts | 178° |
| 2026-05-06 08:26 | 41.26865 | 28.72989 | 334 ft | 18 kts | 179° |
| 2026-05-06 08:26 | 41.26736 | 28.72992 | 332 ft | 20 kts | 179° |
| 2026-05-06 08:26 | 41.26614 | 28.72983 | 333 ft | 14 kts | 208° |
| 2026-05-06 08:26 | 41.26592 | 28.72853 | 334 ft | 16 kts | 269° |
| 2026-05-06 08:27 | 41.26660 | 28.72765 | 330 ft | 17 kts | 358° |
| 2026-05-06 08:27 | 41.26850 | 28.72763 | 334 ft | 55 kts | 359° |
| 2026-05-06 08:27 | 41.27481 | 28.72750 | 334 ft | 124 kts | 359° |
| 2026-05-06 08:27 | 41.28540 | 28.72733 | 334 ft | 177 kts | 359° |
| 2026-05-06 08:28 | 41.29811 | 28.72712 | 846 ft | 184 kts | 360° |
| 2026-05-06 08:28 | 41.31102 | 28.72690 | 1559 ft | 189 kts | 359° |
| 2026-05-06 08:28 | 41.32495 | 28.72660 | 1852 ft | 211 kts | 359° |
| 2026-05-06 08:28 | 41.34040 | 28.72627 | 2062 ft | 235 kts | 359° |
| 2026-05-06 08:29 | 41.35278 | 28.72600 | 2323 ft | 251 kts | 359° |
| 2026-05-06 08:29 | 41.36120 | 28.72581 | 2640 ft | 255 kts | 359° |
| 2026-05-06 08:29 | 41.37897 | 28.72497 | 3456 ft | 257 kts | 351° |
| 2026-05-06 08:29 | 41.39581 | 28.71711 | 4273 ft | 258 kts | 332° |
| 2026-05-06 08:30 | 41.40989 | 28.70237 | 5146 ft | 259 kts | 312° |
| 2026-05-06 08:30 | 41.42141 | 28.68387 | 5998 ft | 260 kts | 311° |
| 2026-05-06 08:30 | 41.43290 | 28.66506 | 6781 ft | 263 kts | 311° |
| 2026-05-06 08:30 | 41.44447 | 28.64606 | 7508 ft | 266 kts | 311° |
| 2026-05-06 08:31 | 41.45624 | 28.62671 | 8245 ft | 270 kts | 311° |
| 2026-05-06 08:31 | 41.46814 | 28.60708 | 8983 ft | 273 kts | 311° |
| 2026-05-06 08:31 | 41.48016 | 28.58724 | 9716 ft | 277 kts | 312° |
| 2026-05-06 08:31 | 41.49203 | 28.56770 | 10245 ft | 288 kts | 312° |
| 2026-05-06 08:32 | 41.50518 | 28.54613 | 10398 ft | 311 kts | 311° |
| 2026-05-06 08:32 | 41.51939 | 28.52287 | 10532 ft | 334 kts | 311° |
| 2026-05-06 08:32 | 41.53412 | 28.49871 | 10682 ft | 353 kts | 311° |
| 2026-05-06 08:32 | 41.54972 | 28.47298 | 11187 ft | 360 kts | 311° |
| 2026-05-06 08:33 | 41.56551 | 28.44678 | 11814 ft | 364 kts | 311° |
| 2026-05-06 08:33 | 41.58155 | 28.42016 | 12482 ft | 367 kts | 311° |
| 2026-05-06 08:33 | 41.59762 | 28.39353 | 13135 ft | 370 kts | 311° |
| 2026-05-06 08:33 | 41.61390 | 28.36662 | 13789 ft | 374 kts | 311° |
| 2026-05-06 08:34 | 41.63016 | 28.33977 | 14364 ft | 378 kts | 311° |
| 2026-05-06 08:34 | 41.66363 | 28.28429 | 15581 ft | 383 kts | 311° |
| 2026-05-06 08:34 | 41.68039 | 28.25644 | 16193 ft | 386 kts | 311° |
| 2026-05-06 08:35 | 41.69732 | 28.22829 | 16807 ft | 389 kts | 311° |
| 2026-05-06 08:35 | 41.71433 | 28.19999 | 17421 ft | 392 kts | 311° |
| 2026-05-06 08:35 | 41.73148 | 28.17140 | 18028 ft | 394 kts | 311° |
| 2026-05-06 08:35 | 41.74874 | 28.14267 | 18576 ft | 397 kts | 311° |
| 2026-05-06 08:36 | 41.76614 | 28.11369 | 19055 ft | 400 kts | 311° |
| 2026-05-06 08:36 | 41.78365 | 28.08446 | 19521 ft | 403 kts | 311° |
| 2026-05-06 08:36 | 41.80105 | 28.05532 | 19980 ft | 406 kts | 310° |
| 2026-05-06 08:36 | 41.81878 | 28.02563 | 20452 ft | 409 kts | 310° |
| 2026-05-06 08:37 | 41.83667 | 27.99570 | 20898 ft | 412 kts | 310° |
| 2026-05-06 08:37 | 41.85461 | 27.96560 | 21345 ft | 415 kts | 310° |
| 2026-05-06 08:37 | 41.87268 | 27.93522 | 21800 ft | 418 kts | 310° |
| 2026-05-06 08:37 | 41.89084 | 27.90458 | 22237 ft | 420 kts | 310° |
| 2026-05-06 08:38 | 41.90906 | 27.87369 | 22670 ft | 423 kts | 310° |
| 2026-05-06 08:38 | 41.92738 | 27.84249 | 23112 ft | 426 kts | 310° |
| 2026-05-06 08:38 | 41.94577 | 27.81111 | 23512 ft | 429 kts | 310° |
| 2026-05-06 08:38 | 41.96429 | 27.77950 | 23903 ft | 431 kts | 310° |
| 2026-05-06 08:39 | 41.98288 | 27.74771 | 24270 ft | 434 kts | 310° |
| 2026-05-06 08:39 | 42.00155 | 27.71581 | 24654 ft | 435 kts | 310° |
| 2026-05-06 08:39 | 42.02036 | 27.68371 | 25026 ft | 436 kts | 310° |
| 2026-05-06 08:39 | 42.03923 | 27.65150 | 25398 ft | 438 kts | 310° |
| 2026-05-06 08:40 | 42.05835 | 27.61885 | 25766 ft | 439 kts | 310° |
| 2026-05-06 08:40 | 42.07729 | 27.58645 | 26140 ft | 441 kts | 310° |
| 2026-05-06 08:40 | 42.09624 | 27.55397 | 26503 ft | 442 kts | 310° |
| 2026-05-06 08:40 | 42.11524 | 27.52136 | 26870 ft | 444 kts | 310° |
| 2026-05-06 08:41 | 42.13435 | 27.48847 | 27235 ft | 445 kts | 310° |
| 2026-05-06 08:41 | 42.15349 | 27.45548 | 27611 ft | 446 kts | 310° |
| 2026-05-06 08:41 | 42.17250 | 27.42261 | 28120 ft | 443 kts | 310° |
| 2026-05-06 08:41 | 42.19143 | 27.38985 | 28616 ft | 441 kts | 310° |
| 2026-05-06 08:42 | 42.21027 | 27.35726 | 29115 ft | 439 kts | 310° |
| 2026-05-06 08:42 | 42.22902 | 27.32486 | 29617 ft | 437 kts | 310° |
| 2026-05-06 08:42 | 42.24748 | 27.29296 | 30105 ft | 435 kts | 310° |
| 2026-05-06 08:42 | 42.26560 | 27.26162 | 30515 ft | 433 kts | 310° |
| 2026-05-06 08:43 | 42.28449 | 27.22897 | 30921 ft | 432 kts | 310° |
| 2026-05-06 08:43 | 42.30317 | 27.19656 | 31294 ft | 431 kts | 310° |
| 2026-05-06 08:43 | 42.32161 | 27.16452 | 31657 ft | 431 kts | 310° |
| 2026-05-06 08:43 | 42.33976 | 27.13295 | 32019 ft | 430 kts | 310° |
| 2026-05-06 08:44 | 42.35830 | 27.10065 | 32403 ft | 429 kts | 310° |
| 2026-05-06 08:44 | 42.37679 | 27.06837 | 32781 ft | 428 kts | 310° |
| 2026-05-06 08:44 | 42.39503 | 27.03648 | 33144 ft | 427 kts | 310° |
| 2026-05-06 08:44 | 42.41340 | 27.00430 | 33518 ft | 426 kts | 310° |
| 2026-05-06 08:45 | 42.43203 | 26.97169 | 33896 ft | 425 kts | 310° |
| 2026-05-06 08:45 | 42.45008 | 26.94011 | 34215 ft | 424 kts | 309° |
| 2026-05-06 08:45 | 42.46813 | 26.90852 | 34494 ft | 424 kts | 309° |
| 2026-05-06 08:45 | 42.48616 | 26.87692 | 34761 ft | 424 kts | 309° |
| 2026-05-06 08:46 | 42.50442 | 26.84491 | 35026 ft | 424 kts | 309° |
| 2026-05-06 08:46 | 42.52249 | 26.81321 | 35275 ft | 424 kts | 309° |
| 2026-05-06 08:46 | 42.53466 | 26.79185 | 35450 ft | 424 kts | 309° |
| 2026-05-06 08:46 | 42.55272 | 26.76006 | 35714 ft | 425 kts | 309° |
| 2026-05-06 08:47 | 42.57071 | 26.72828 | 35958 ft | 425 kts | 309° |
| 2026-05-06 08:47 | 42.58870 | 26.69645 | 36062 ft | 426 kts | 309° |
| 2026-05-06 08:47 | 42.60675 | 26.66451 | 36074 ft | 426 kts | 309° |
| 2026-05-06 08:48 | 42.64307 | 26.60018 | 36068 ft | 426 kts | 309° |
| 2026-05-06 08:48 | 42.67917 | 26.53612 | 36064 ft | 426 kts | 309° |
| 2026-05-06 08:49 | 42.71525 | 26.47211 | 36064 ft | 426 kts | 309° |
| 2026-05-06 08:49 | 42.75147 | 26.40765 | 36061 ft | 426 kts | 309° |
| 2026-05-06 08:50 | 42.78795 | 26.34253 | 36062 ft | 427 kts | 309° |
| 2026-05-06 08:50 | 42.82415 | 26.27778 | 36056 ft | 427 kts | 309° |
| 2026-05-06 08:51 | 42.86014 | 26.21319 | 36054 ft | 427 kts | 309° |
| 2026-05-06 08:51 | 42.89648 | 26.14769 | 36052 ft | 427 kts | 309° |
| 2026-05-06 08:52 | 42.93233 | 26.08303 | 36050 ft | 427 kts | 309° |
| 2026-05-06 08:52 | 42.96800 | 26.01867 | 36041 ft | 427 kts | 309° |
| 2026-05-06 08:53 | 43.00408 | 25.95348 | 36035 ft | 427 kts | 309° |
| 2026-05-06 08:53 | 43.03994 | 25.88855 | 36039 ft | 427 kts | 309° |
| 2026-05-06 08:54 | 43.07571 | 25.82364 | 36037 ft | 427 kts | 308° |
| 2026-05-06 08:54 | 43.11171 | 25.75798 | 36042 ft | 427 kts | 308° |
| 2026-05-06 08:55 | 43.14718 | 25.69319 | 36040 ft | 427 kts | 308° |
| 2026-05-06 08:55 | 43.18300 | 25.62770 | 36042 ft | 427 kts | 308° |
| 2026-05-06 08:56 | 43.21895 | 25.56191 | 36042 ft | 427 kts | 308° |
| 2026-05-06 08:56 | 43.25457 | 25.49657 | 36041 ft | 427 kts | 308° |
| 2026-05-06 08:57 | 43.29029 | 25.43071 | 36038 ft | 427 kts | 308° |
| 2026-05-06 08:57 | 43.32623 | 25.36421 | 36041 ft | 427 kts | 308° |
| 2026-05-06 08:58 | 43.36165 | 25.29876 | 36036 ft | 427 kts | 308° |
| 2026-05-06 08:58 | 43.39700 | 25.23330 | 36039 ft | 426 kts | 308° |
| 2026-05-06 08:59 | 43.43233 | 25.16778 | 36040 ft | 426 kts | 308° |
| 2026-05-06 08:59 | 43.46255 | 25.11145 | 36043 ft | 426 kts | 308° |
| 2026-05-06 09:00 | 43.49774 | 25.04583 | 36043 ft | 425 kts | 308° |
| 2026-05-06 09:00 | 43.53287 | 24.98016 | 36043 ft | 425 kts | 308° |
| 2026-05-06 09:01 | 43.56799 | 24.91447 | 36042 ft | 425 kts | 308° |
| 2026-05-06 09:01 | 43.60295 | 24.84875 | 36045 ft | 424 kts | 308° |
| 2026-05-06 09:02 | 43.63778 | 24.78315 | 36042 ft | 424 kts | 308° |
| 2026-05-06 09:02 | 43.67258 | 24.71740 | 36044 ft | 423 kts | 308° |
| 2026-05-06 09:03 | 43.70737 | 24.65168 | 36046 ft | 423 kts | 308° |
| 2026-05-06 09:03 | 43.74203 | 24.58598 | 36045 ft | 423 kts | 308° |
| 2026-05-06 09:04 | 43.77760 | 24.52105 | 36044 ft | 422 kts | 311° |
| 2026-05-06 09:04 | 43.81605 | 24.45973 | 36045 ft | 422 kts | 313° |
| 2026-05-06 09:05 | 43.85512 | 24.39903 | 36048 ft | 421 kts | 312° |
| 2026-05-06 09:05 | 43.89362 | 24.33774 | 36045 ft | 421 kts | 311° |
| 2026-05-06 09:06 | 43.93183 | 24.27534 | 36051 ft | 420 kts | 311° |
| 2026-05-06 09:06 | 43.96955 | 24.21338 | 36048 ft | 420 kts | 311° |
| 2026-05-06 09:07 | 44.00743 | 24.15151 | 36048 ft | 420 kts | 311° |
| 2026-05-06 09:07 | 44.04534 | 24.08957 | 36051 ft | 419 kts | 311° |
| 2026-05-06 09:08 | 44.08332 | 24.02733 | 36056 ft | 419 kts | 311° |
| 2026-05-06 09:08 | 44.12106 | 23.96535 | 36066 ft | 419 kts | 311° |
| 2026-05-06 09:09 | 44.15854 | 23.90369 | 36073 ft | 419 kts | 311° |
| 2026-05-06 09:09 | 44.19618 | 23.84162 | 36074 ft | 419 kts | 311° |
| 2026-05-06 09:10 | 44.23375 | 23.77943 | 36078 ft | 419 kts | 311° |
| 2026-05-06 09:10 | 44.27133 | 23.71720 | 36075 ft | 419 kts | 311° |
| 2026-05-06 09:11 | 44.30891 | 23.65484 | 36069 ft | 419 kts | 311° |
| 2026-05-06 09:11 | 44.34581 | 23.59341 | 36067 ft | 418 kts | 310° |
| 2026-05-06 09:12 | 44.38320 | 23.53109 | 36058 ft | 418 kts | 310° |
| 2026-05-06 09:12 | 44.42057 | 23.46858 | 36053 ft | 419 kts | 310° |
| 2026-05-06 09:13 | 44.45791 | 23.40596 | 36052 ft | 418 kts | 310° |
| 2026-05-06 09:13 | 44.49526 | 23.34333 | 36053 ft | 418 kts | 310° |
| 2026-05-06 09:14 | 44.53235 | 23.28088 | 36052 ft | 418 kts | 310° |
| 2026-05-06 09:14 | 44.56966 | 23.21786 | 36065 ft | 418 kts | 310° |
| 2026-05-06 09:15 | 44.60681 | 23.15508 | 36064 ft | 418 kts | 310° |
| 2026-05-06 09:15 | 44.64392 | 23.09227 | 36062 ft | 418 kts | 310° |
| 2026-05-06 09:16 | 44.68106 | 23.02921 | 36059 ft | 418 kts | 310° |
| 2026-05-06 09:16 | 44.71813 | 22.96624 | 36058 ft | 417 kts | 310° |
| 2026-05-06 09:17 | 44.75520 | 22.90322 | 36062 ft | 417 kts | 310° |
| 2026-05-06 09:17 | 44.79208 | 22.84016 | 36055 ft | 417 kts | 309° |
| 2026-05-06 09:18 | 44.82890 | 22.77699 | 36061 ft | 417 kts | 309° |
| 2026-05-06 09:18 | 44.86596 | 22.71333 | 36057 ft | 417 kts | 309° |
| 2026-05-06 09:19 | 44.90214 | 22.65110 | 36055 ft | 417 kts | 309° |
| 2026-05-06 09:19 | 44.93887 | 22.58768 | 36056 ft | 417 kts | 309° |
| 2026-05-06 09:20 | 44.97582 | 22.52380 | 36048 ft | 416 kts | 309° |
| 2026-05-06 09:20 | 45.00691 | 22.47009 | 36055 ft | 416 kts | 309° |
| 2026-05-06 09:21 | 45.04352 | 22.40668 | 36047 ft | 417 kts | 309° |
| 2026-05-06 09:21 | 45.08007 | 22.34296 | 36048 ft | 417 kts | 309° |
| 2026-05-06 09:22 | 45.11578 | 22.28077 | 36031 ft | 417 kts | 308° |
| 2026-05-06 09:22 | 45.15229 | 22.21702 | 36032 ft | 417 kts | 308° |
| 2026-05-06 09:23 | 45.18884 | 22.15304 | 36048 ft | 417 kts | 308° |
| 2026-05-06 09:23 | 45.22529 | 22.08906 | 36040 ft | 417 kts | 308° |
| 2026-05-06 09:24 | 45.26206 | 22.02437 | 36032 ft | 418 kts | 308° |
| 2026-05-06 09:24 | 45.29765 | 21.96161 | 36038 ft | 418 kts | 308° |
| 2026-05-06 09:25 | 45.33388 | 21.89767 | 36038 ft | 418 kts | 308° |
| 2026-05-06 09:25 | 45.37038 | 21.83318 | 36037 ft | 418 kts | 308° |
| 2026-05-06 09:26 | 45.40672 | 21.76859 | 36035 ft | 418 kts | 307° |
| 2026-05-06 09:26 | 45.44300 | 21.70389 | 36032 ft | 418 kts | 307° |
| 2026-05-06 09:27 | 45.47940 | 21.63907 | 36033 ft | 419 kts | 307° |
| 2026-05-06 09:27 | 45.51025 | 21.58404 | 36031 ft | 419 kts | 307° |
| 2026-05-06 09:28 | 45.53806 | 21.53434 | 36035 ft | 419 kts | 307° |
| 2026-05-06 09:28 | 45.57332 | 21.47088 | 36034 ft | 419 kts | 307° |
| 2026-05-06 09:29 | 45.60982 | 21.40515 | 36040 ft | 420 kts | 307° |
| 2026-05-06 09:29 | 45.64621 | 21.33969 | 36050 ft | 420 kts | 307° |
| 2026-05-06 09:30 | 45.68273 | 21.27379 | 36048 ft | 420 kts | 307° |
| 2026-05-06 09:30 | 45.71897 | 21.20817 | 36034 ft | 420 kts | 306° |
| 2026-05-06 09:31 | 45.75519 | 21.14243 | 36037 ft | 421 kts | 306° |
| 2026-05-06 09:31 | 45.79146 | 21.07653 | 36049 ft | 421 kts | 306° |
| 2026-05-06 09:32 | 45.82777 | 21.01038 | 36034 ft | 421 kts | 306° |
| 2026-05-06 09:32 | 45.86397 | 20.94418 | 36033 ft | 422 kts | 306° |
| 2026-05-06 09:33 | 45.90020 | 20.87773 | 36024 ft | 422 kts | 306° |
| 2026-05-06 09:33 | 45.93644 | 20.81128 | 36024 ft | 422 kts | 306° |
| 2026-05-06 09:34 | 45.97259 | 20.74487 | 36018 ft | 422 kts | 306° |
| 2026-05-06 09:34 | 46.00874 | 20.67813 | 36021 ft | 422 kts | 305° |
| 2026-05-06 09:35 | 46.04491 | 20.61125 | 36019 ft | 423 kts | 305° |
| 2026-05-06 09:35 | 46.07731 | 20.55124 | 36016 ft | 423 kts | 305° |
| 2026-05-06 09:36 | 46.11346 | 20.48418 | 36010 ft | 423 kts | 305° |
| 2026-05-06 09:36 | 46.14946 | 20.41694 | 36008 ft | 424 kts | 305° |
| 2026-05-06 09:37 | 46.18496 | 20.34897 | 36009 ft | 424 kts | 303° |
| 2026-05-06 09:37 | 46.21953 | 20.27972 | 36004 ft | 424 kts | 303° |
| 2026-05-06 09:38 | 46.25386 | 20.21039 | 36002 ft | 424 kts | 303° |
| 2026-05-06 09:39 | 46.32310 | 20.07171 | 35998 ft | 425 kts | 303° |
| 2026-05-06 09:39 | 46.35772 | 20.00226 | 35997 ft | 426 kts | 303° |